sensor_id;sensor_type;location;lat;lon;timestamp;temperature;humidity
20091;DHT22;10205;49.678;6.560;2023-01-16T00:01:57;9.30;73.40
20091;DHT22;10205;49.678;6.560;2023-01-16T00:04:25;9.20;73.30
20091;DHT22;10205;49.678;6.560;2023-01-16T00:06:53;9.30;73.30
20091;DHT22;10205;49.678;6.560;2023-01-16T00:09:22;9.20;73.30
20091;DHT22;10205;49.678;6.560;2023-01-16T00:11:50;9.20;73.30
20091;DHT22;10205;49.678;6.560;2023-01-16T00:14:17;9.20;73.30
20091;DHT22;10205;49.678;6.560;2023-01-16T00:16:44;9.20;73.30
20091;DHT22;10205;49.678;6.560;2023-01-16T00:19:11;9.20;73.40
20091;DHT22;10205;49.678;6.560;2023-01-16T00:21:38;9.20;73.50
20091;DHT22;10205;49.678;6.560;2023-01-16T00:24:05;9.20;73.60
20091;DHT22;10205;49.678;6.560;2023-01-16T00:26:34;9.20;73.70
20091;DHT22;10205;49.678;6.560;2023-01-16T00:29:01;9.10;73.80
20091;DHT22;10205;49.678;6.560;2023-01-16T00:31:31;9.20;73.90
20091;DHT22;10205;49.678;6.560;2023-01-16T00:33:58;9.20;73.90
20091;DHT22;10205;49.678;6.560;2023-01-16T00:36:25;9.20;74.00
20091;DHT22;10205;49.678;6.560;2023-01-16T00:38:59;9.20;74.00
20091;DHT22;10205;49.678;6.560;2023-01-16T00:41:26;9.20;74.00
20091;DHT22;10205;49.678;6.560;2023-01-16T00:43:55;9.20;74.00
20091;DHT22;10205;49.678;6.560;2023-01-16T00:46:24;9.20;74.00
20091;DHT22;10205;49.678;6.560;2023-01-16T00:48:51;9.20;74.00
20091;DHT22;10205;49.678;6.560;2023-01-16T00:51:19;9.20;74.00
20091;DHT22;10205;49.678;6.560;2023-01-16T00:53:49;9.20;74.00
20091;DHT22;10205;49.678;6.560;2023-01-16T00:56:16;9.20;74.00
20091;DHT22;10205;49.678;6.560;2023-01-16T00:58:43;9.20;74.10
20091;DHT22;10205;49.678;6.560;2023-01-16T01:01:12;9.10;73.90
20091;DHT22;10205;49.678;6.560;2023-01-16T01:03:39;9.20;74.00
20091;DHT22;10205;49.678;6.560;2023-01-16T01:06:07;9.10;73.90
20091;DHT22;10205;49.678;6.560;2023-01-16T01:08:36;9.10;74.00
20091;DHT22;10205;49.678;6.560;2023-01-16T01:11:08;9.10;74.00
20091;DHT22;10205;49.678;6.560;2023-01-16T01:13:36;9.10;74.00
20091;DHT22;10205;49.678;6.560;2023-01-16T01:16:04;9.10;74.00
20091;DHT22;10205;49.678;6.560;2023-01-16T01:18:34;9.10;73.90
20091;DHT22;10205;49.678;6.560;2023-01-16T01:21:04;9.10;73.70
20091;DHT22;10205;49.678;6.560;2023-01-16T01:23:31;9.10;73.60
20091;DHT22;10205;49.678;6.560;2023-01-16T01:26:05;9.10;73.60
20091;DHT22;10205;49.678;6.560;2023-01-16T01:28:33;9.10;73.60
20091;DHT22;10205;49.678;6.560;2023-01-16T01:31:02;9.10;73.80
20091;DHT22;10205;49.678;6.560;2023-01-16T01:33:30;9.10;73.80
20091;DHT22;10205;49.678;6.560;2023-01-16T01:35:59;9.10;73.90
20091;DHT22;10205;49.678;6.560;2023-01-16T01:38:26;9.10;74.10
20091;DHT22;10205;49.678;6.560;2023-01-16T01:40:54;9.10;74.00
20091;DHT22;10205;49.678;6.560;2023-01-16T01:43:21;9.10;73.90
20091;DHT22;10205;49.678;6.560;2023-01-16T01:46:07;9.10;73.90
20091;DHT22;10205;49.678;6.560;2023-01-16T01:48:41;9.00;74.00
20091;DHT22;10205;49.678;6.560;2023-01-16T01:51:13;9.00;74.10
20091;DHT22;10205;49.678;6.560;2023-01-16T01:53:46;9.10;74.20
20091;DHT22;10205;49.678;6.560;2023-01-16T01:56:21;9.00;74.10
20091;DHT22;10205;49.678;6.560;2023-01-16T01:58:59;9.00;74.10
20091;DHT22;10205;49.678;6.560;2023-01-16T02:01:30;9.00;74.00
20091;DHT22;10205;49.678;6.560;2023-01-16T02:04:00;9.00;73.90
20091;DHT22;10205;49.678;6.560;2023-01-16T02:06:46;9.00;73.80
20091;DHT22;10205;49.678;6.560;2023-01-16T02:09:16;9.00;73.80
20091;DHT22;10205;49.678;6.560;2023-01-16T02:11:48;9.00;73.70
20091;DHT22;10205;49.678;6.560;2023-01-16T02:14:20;9.00;73.60
20091;DHT22;10205;49.678;6.560;2023-01-16T02:16:54;9.00;73.60
20091;DHT22;10205;49.678;6.560;2023-01-16T02:19:50;8.90;73.60
20091;DHT22;10205;49.678;6.560;2023-01-16T02:22:43;8.90;73.70
20091;DHT22;10205;49.678;6.560;2023-01-16T02:25:49;8.90;73.60
20091;DHT22;10205;49.678;6.560;2023-01-16T02:29:09;8.90;73.70
20091;DHT22;10205;49.678;6.560;2023-01-16T02:31:55;8.90;73.70
20091;DHT22;10205;49.678;6.560;2023-01-16T02:34:52;8.90;74.60
20091;DHT22;10205;49.678;6.560;2023-01-16T02:37:42;8.90;74.00
20091;DHT22;10205;49.678;6.560;2023-01-16T02:40:22;8.90;74.00
20091;DHT22;10205;49.678;6.560;2023-01-16T02:43:07;8.90;74.00
20091;DHT22;10205;49.678;6.560;2023-01-16T02:45:48;8.90;74.00
20091;DHT22;10205;49.678;6.560;2023-01-16T02:48:27;8.90;74.10
20091;DHT22;10205;49.678;6.560;2023-01-16T02:51:04;8.90;74.10
20091;DHT22;10205;49.678;6.560;2023-01-16T02:53:42;8.90;74.10
20091;DHT22;10205;49.678;6.560;2023-01-16T02:56:17;8.90;74.20
20091;DHT22;10205;49.678;6.560;2023-01-16T02:58:50;8.90;74.20
20091;DHT22;10205;49.678;6.560;2023-01-16T03:01:18;8.90;74.20
20091;DHT22;10205;49.678;6.560;2023-01-16T03:04:01;8.90;74.20
20091;DHT22;10205;49.678;6.560;2023-01-16T03:06:37;8.90;75.10
20091;DHT22;10205;49.678;6.560;2023-01-16T03:09:28;8.90;74.10
20091;DHT22;10205;49.678;6.560;2023-01-16T03:12:16;8.90;74.20
20091;DHT22;10205;49.678;6.560;2023-01-16T03:14:56;8.90;74.10
20091;DHT22;10205;49.678;6.560;2023-01-16T03:17:39;8.90;74.10
20091;DHT22;10205;49.678;6.560;2023-01-16T03:20:22;8.90;74.10
20091;DHT22;10205;49.678;6.560;2023-01-16T03:23:01;8.90;74.20
20091;DHT22;10205;49.678;6.560;2023-01-16T03:25:36;8.90;74.40
20091;DHT22;10205;49.678;6.560;2023-01-16T03:28:16;8.90;74.30
20091;DHT22;10205;49.678;6.560;2023-01-16T03:30:57;8.90;74.30
20091;DHT22;10205;49.678;6.560;2023-01-16T03:33:35;8.90;74.20
20091;DHT22;10205;49.678;6.560;2023-01-16T03:36:12;8.90;74.10
20091;DHT22;10205;49.678;6.560;2023-01-16T03:38:43;9.00;74.20
20091;DHT22;10205;49.678;6.560;2023-01-16T03:41:14;8.90;75.00
20091;DHT22;10205;49.678;6.560;2023-01-16T03:43:49;9.00;74.20
20091;DHT22;10205;49.678;6.560;2023-01-16T03:46:25;9.00;74.20
20091;DHT22;10205;49.678;6.560;2023-01-16T03:48:58;9.00;74.10
20091;DHT22;10205;49.678;6.560;2023-01-16T03:51:30;9.00;74.10
20091;DHT22;10205;49.678;6.560;2023-01-16T03:54:03;9.00;74.00
20091;DHT22;10205;49.678;6.560;2023-01-16T03:56:40;9.00;74.00
20091;DHT22;10205;49.678;6.560;2023-01-16T03:59:13;9.00;74.10
20091;DHT22;10205;49.678;6.560;2023-01-16T04:01:47;9.00;74.00
20091;DHT22;10205;49.678;6.560;2023-01-16T04:04:24;9.00;73.80
20091;DHT22;10205;49.678;6.560;2023-01-16T04:07:00;9.00;73.80
20091;DHT22;10205;49.678;6.560;2023-01-16T04:09:47;9.00;73.80
20091;DHT22;10205;49.678;6.560;2023-01-16T04:12:19;8.90;73.70
20091;DHT22;10205;49.678;6.560;2023-01-16T04:14:54;8.90;73.60
20091;DHT22;10205;49.678;6.560;2023-01-16T04:17:23;8.90;73.60
20091;DHT22;10205;49.678;6.560;2023-01-16T04:19:51;8.90;73.60
20091;DHT22;10205;49.678;6.560;2023-01-16T04:22:22;8.90;73.60
20091;DHT22;10205;49.678;6.560;2023-01-16T04:24:53;8.90;73.50
20091;DHT22;10205;49.678;6.560;2023-01-16T04:27:23;9.00;73.60
20091;DHT22;10205;49.678;6.560;2023-01-16T04:29:51;8.90;74.30
20091;DHT22;10205;49.678;6.560;2023-01-16T04:32:18;8.90;73.50
20091;DHT22;10205;49.678;6.560;2023-01-16T04:34:46;8.90;73.40
20091;DHT22;10205;49.678;6.560;2023-01-16T04:37:14;8.90;73.30
20091;DHT22;10205;49.678;6.560;2023-01-16T04:39:44;8.90;73.30
20091;DHT22;10205;49.678;6.560;2023-01-16T04:42:13;8.90;73.40
20091;DHT22;10205;49.678;6.560;2023-01-16T04:44:40;8.90;73.30
20091;DHT22;10205;49.678;6.560;2023-01-16T04:47:07;8.90;73.10
20091;DHT22;10205;49.678;6.560;2023-01-16T04:49:37;8.90;73.10
20091;DHT22;10205;49.678;6.560;2023-01-16T04:52:05;8.90;73.10
20091;DHT22;10205;49.678;6.560;2023-01-16T04:54:32;9.00;73.20
20091;DHT22;10205;49.678;6.560;2023-01-16T04:57:00;8.90;73.10
20091;DHT22;10205;49.678;6.560;2023-01-16T04:59:28;9.00;73.20
20091;DHT22;10205;49.678;6.560;2023-01-16T05:01:58;9.00;73.00
20091;DHT22;10205;49.678;6.560;2023-01-16T05:04:25;8.90;72.80
20091;DHT22;10205;49.678;6.560;2023-01-16T05:06:53;9.00;72.80
20091;DHT22;10205;49.678;6.560;2023-01-16T05:09:20;8.90;72.60
20091;DHT22;10205;49.678;6.560;2023-01-16T05:11:47;8.90;72.60
20091;DHT22;10205;49.678;6.560;2023-01-16T05:14:16;9.00;72.70
20091;DHT22;10205;49.678;6.560;2023-01-16T05:16:43;8.90;72.60
20091;DHT22;10205;49.678;6.560;2023-01-16T05:19:10;8.90;72.40
20091;DHT22;10205;49.678;6.560;2023-01-16T05:21:38;8.90;72.40
20091;DHT22;10205;49.678;6.560;2023-01-16T05:24:06;8.90;72.30
20091;DHT22;10205;49.678;6.560;2023-01-16T05:26:36;8.90;72.00
20091;DHT22;10205;49.678;6.560;2023-01-16T05:29:03;8.90;72.60
20091;DHT22;10205;49.678;6.560;2023-01-16T05:31:31;8.90;72.10
20091;DHT22;10205;49.678;6.560;2023-01-16T05:33:58;8.90;72.30
20091;DHT22;10205;49.678;6.560;2023-01-16T05:36:26;8.90;72.00
20091;DHT22;10205;49.678;6.560;2023-01-16T05:38:54;8.80;71.90
20091;DHT22;10205;49.678;6.560;2023-01-16T05:41:21;8.90;71.90
20091;DHT22;10205;49.678;6.560;2023-01-16T05:43:48;8.90;71.90
20091;DHT22;10205;49.678;6.560;2023-01-16T05:46:15;8.90;71.90
20091;DHT22;10205;49.678;6.560;2023-01-16T05:48:44;8.90;71.80
20091;DHT22;10205;49.678;6.560;2023-01-16T05:51:11;8.80;71.60
20091;DHT22;10205;49.678;6.560;2023-01-16T05:53:39;8.80;71.50
20091;DHT22;10205;49.678;6.560;2023-01-16T05:56:07;8.80;71.50
20091;DHT22;10205;49.678;6.560;2023-01-16T05:58:36;8.80;71.40
20091;DHT22;10205;49.678;6.560;2023-01-16T06:01:04;8.80;71.50
20091;DHT22;10205;49.678;6.560;2023-01-16T06:03:31;8.80;71.30
20091;DHT22;10205;49.678;6.560;2023-01-16T06:06:00;8.80;71.60
20091;DHT22;10205;49.678;6.560;2023-01-16T06:08:27;8.80;71.50
20091;DHT22;10205;49.678;6.560;2023-01-16T06:10:57;8.80;71.70
20091;DHT22;10205;49.678;6.560;2023-01-16T06:13:24;8.70;71.40
20091;DHT22;10205;49.678;6.560;2023-01-16T06:15:51;8.80;71.50
20091;DHT22;10205;49.678;6.560;2023-01-16T06:18:19;8.80;71.40
20091;DHT22;10205;49.678;6.560;2023-01-16T06:20:46;8.80;71.50
20091;DHT22;10205;49.678;6.560;2023-01-16T06:23:14;8.80;71.50
20091;DHT22;10205;49.678;6.560;2023-01-16T06:25:41;8.80;71.20
20091;DHT22;10205;49.678;6.560;2023-01-16T06:28:08;8.80;71.10
20091;DHT22;10205;49.678;6.560;2023-01-16T06:30:36;8.80;71.30
20091;DHT22;10205;49.678;6.560;2023-01-16T06:33:03;8.80;71.10
20091;DHT22;10205;49.678;6.560;2023-01-16T06:35:30;8.80;70.80
20091;DHT22;10205;49.678;6.560;2023-01-16T06:37:57;8.80;70.90
20091;DHT22;10205;49.678;6.560;2023-01-16T06:40:26;8.80;71.20
20091;DHT22;10205;49.678;6.560;2023-01-16T06:42:53;8.80;71.10
20091;DHT22;10205;49.678;6.560;2023-01-16T06:45:20;8.80;71.10
20091;DHT22;10205;49.678;6.560;2023-01-16T06:47:51;8.80;71.20
20091;DHT22;10205;49.678;6.560;2023-01-16T06:50:18;8.80;71.30
20091;DHT22;10205;49.678;6.560;2023-01-16T06:52:47;8.80;71.40
20091;DHT22;10205;49.678;6.560;2023-01-16T06:55:14;8.80;71.50
20091;DHT22;10205;49.678;6.560;2023-01-16T06:57:43;8.80;71.60
20091;DHT22;10205;49.678;6.560;2023-01-16T07:00:11;8.80;71.70
20091;DHT22;10205;49.678;6.560;2023-01-16T07:02:39;8.80;71.80
20091;DHT22;10205;49.678;6.560;2023-01-16T07:05:07;8.70;71.80
20091;DHT22;10205;49.678;6.560;2023-01-16T07:07:35;8.70;71.80
20091;DHT22;10205;49.678;6.560;2023-01-16T07:10:03;8.70;71.80
20091;DHT22;10205;49.678;6.560;2023-01-16T07:12:31;8.70;71.90
20091;DHT22;10205;49.678;6.560;2023-01-16T07:14:59;8.70;71.90
20091;DHT22;10205;49.678;6.560;2023-01-16T07:17:44;8.60;71.90
20091;DHT22;10205;49.678;6.560;2023-01-16T07:20:29;8.60;72.10
20091;DHT22;10205;49.678;6.560;2023-01-16T07:23:17;8.60;72.10
20091;DHT22;10205;49.678;6.560;2023-01-16T07:25:47;8.60;72.30
20091;DHT22;10205;49.678;6.560;2023-01-16T07:28:16;8.50;72.20
20091;DHT22;10205;49.678;6.560;2023-01-16T07:30:47;8.50;72.30
20091;DHT22;10205;49.678;6.560;2023-01-16T07:33:15;8.50;72.40
20091;DHT22;10205;49.678;6.560;2023-01-16T07:35:42;8.50;72.50
20091;DHT22;10205;49.678;6.560;2023-01-16T07:38:11;8.50;72.50
20091;DHT22;10205;49.678;6.560;2023-01-16T07:40:38;8.50;72.50
20091;DHT22;10205;49.678;6.560;2023-01-16T07:43:06;8.40;72.40
20091;DHT22;10205;49.678;6.560;2023-01-16T07:45:33;8.40;72.60
20091;DHT22;10205;49.678;6.560;2023-01-16T07:48:02;8.40;72.70
20091;DHT22;10205;49.678;6.560;2023-01-16T07:50:29;8.40;72.60
20091;DHT22;10205;49.678;6.560;2023-01-16T07:52:57;8.40;72.60
20091;DHT22;10205;49.678;6.560;2023-01-16T07:55:25;8.40;72.70
20091;DHT22;10205;49.678;6.560;2023-01-16T07:57:52;8.30;72.70
20091;DHT22;10205;49.678;6.560;2023-01-16T08:00:20;8.30;72.80
20091;DHT22;10205;49.678;6.560;2023-01-16T08:02:49;8.30;72.90
20091;DHT22;10205;49.678;6.560;2023-01-16T08:05:17;8.30;73.10
20091;DHT22;10205;49.678;6.560;2023-01-16T08:07:45;8.30;73.20
20091;DHT22;10205;49.678;6.560;2023-01-16T08:10:12;8.20;73.30
20091;DHT22;10205;49.678;6.560;2023-01-16T08:12:39;8.20;73.30
20091;DHT22;10205;49.678;6.560;2023-01-16T08:15:07;8.20;73.30
20091;DHT22;10205;49.678;6.560;2023-01-16T08:17:38;8.20;73.30
20091;DHT22;10205;49.678;6.560;2023-01-16T08:20:07;8.20;73.40
20091;DHT22;10205;49.678;6.560;2023-01-16T08:22:41;8.20;73.40
20091;DHT22;10205;49.678;6.560;2023-01-16T08:25:10;8.20;73.50
20091;DHT22;10205;49.678;6.560;2023-01-16T08:27:38;8.20;73.60
20091;DHT22;10205;49.678;6.560;2023-01-16T08:30:06;8.20;73.70
20091;DHT22;10205;49.678;6.560;2023-01-16T08:32:35;8.20;73.80
20091;DHT22;10205;49.678;6.560;2023-01-16T08:35:04;8.20;73.80
20091;DHT22;10205;49.678;6.560;2023-01-16T08:37:33;8.20;73.80
20091;DHT22;10205;49.678;6.560;2023-01-16T08:40:01;8.20;73.90
20091;DHT22;10205;49.678;6.560;2023-01-16T08:42:30;8.20;73.90
20091;DHT22;10205;49.678;6.560;2023-01-16T08:45:15;8.20;73.90
20091;DHT22;10205;49.678;6.560;2023-01-16T08:48:00;8.30;73.90
20091;DHT22;10205;49.678;6.560;2023-01-16T08:50:46;8.30;73.90
20091;DHT22;10205;49.678;6.560;2023-01-16T08:53:31;8.30;73.80
20091;DHT22;10205;49.678;6.560;2023-01-16T08:55:59;8.30;73.80
20091;DHT22;10205;49.678;6.560;2023-01-16T08:58:27;8.30;73.70
20091;DHT22;10205;49.678;6.560;2023-01-16T09:00:57;8.30;73.80
20091;DHT22;10205;49.678;6.560;2023-01-16T09:03:24;8.30;73.90
20091;DHT22;10205;49.678;6.560;2023-01-16T09:05:51;8.30;74.00
20091;DHT22;10205;49.678;6.560;2023-01-16T09:08:18;8.30;73.90
20091;DHT22;10205;49.678;6.560;2023-01-16T09:10:46;8.40;73.90
20091;DHT22;10205;49.678;6.560;2023-01-16T09:13:28;8.40;73.60
20091;DHT22;10205;49.678;6.560;2023-01-16T09:16:13;8.40;73.60
20091;DHT22;10205;49.678;6.560;2023-01-16T09:18:41;8.40;73.60
20091;DHT22;10205;49.678;6.560;2023-01-16T09:21:08;8.40;73.60
20091;DHT22;10205;49.678;6.560;2023-01-16T09:23:35;8.40;73.60
20091;DHT22;10205;49.678;6.560;2023-01-16T09:26:02;8.50;73.70
20091;DHT22;10205;49.678;6.560;2023-01-16T09:28:33;8.40;73.60
20091;DHT22;10205;49.678;6.560;2023-01-16T09:31:00;8.50;73.60
20091;DHT22;10205;49.678;6.560;2023-01-16T09:33:27;8.50;73.60
20091;DHT22;10205;49.678;6.560;2023-01-16T09:35:54;8.50;73.40
20091;DHT22;10205;49.678;6.560;2023-01-16T09:38:21;8.50;73.30
20091;DHT22;10205;49.678;6.560;2023-01-16T09:40:53;8.60;73.20
20091;DHT22;10205;49.678;6.560;2023-01-16T09:43:33;8.50;73.20
20091;DHT22;10205;49.678;6.560;2023-01-16T09:46:05;8.50;73.20
20091;DHT22;10205;49.678;6.560;2023-01-16T09:48:41;8.60;73.40
20091;DHT22;10205;49.678;6.560;2023-01-16T09:51:18;8.60;73.40
20091;DHT22;10205;49.678;6.560;2023-01-16T09:53:52;8.60;73.20
20091;DHT22;10205;49.678;6.560;2023-01-16T09:56:42;8.60;73.30
20091;DHT22;10205;49.678;6.560;2023-01-16T09:59:35;8.60;73.40
20091;DHT22;10205;49.678;6.560;2023-01-16T10:02:15;8.60;73.50
20091;DHT22;10205;49.678;6.560;2023-01-16T10:04:48;8.60;73.60
20091;DHT22;10205;49.678;6.560;2023-01-16T10:07:39;8.70;73.60
20091;DHT22;10205;49.678;6.560;2023-01-16T10:10:32;8.70;73.60
20091;DHT22;10205;49.678;6.560;2023-01-16T10:16:43;8.70;73.50
20091;DHT22;10205;49.678;6.560;2023-01-16T10:19:28;8.70;73.40
20091;DHT22;10205;49.678;6.560;2023-01-16T10:22:20;8.70;73.40
20091;DHT22;10205;49.678;6.560;2023-01-16T10:25:06;8.80;73.60
20091;DHT22;10205;49.678;6.560;2023-01-16T10:27:50;8.80;73.40
20091;DHT22;10205;49.678;6.560;2023-01-16T10:30:32;8.80;73.30
20091;DHT22;10205;49.678;6.560;2023-01-16T10:33:09;8.80;73.40
20091;DHT22;10205;49.678;6.560;2023-01-16T10:35:42;8.90;73.40
20091;DHT22;10205;49.678;6.560;2023-01-16T10:38:21;8.90;73.20
20091;DHT22;10205;49.678;6.560;2023-01-16T10:41:05;8.80;73.20
20091;DHT22;10205;49.678;6.560;2023-01-16T10:43:58;8.90;73.10
20091;DHT22;10205;49.678;6.560;2023-01-16T10:46:45;8.90;73.00
20091;DHT22;10205;49.678;6.560;2023-01-16T10:49:32;8.90;72.90
20091;DHT22;10205;49.678;6.560;2023-01-16T10:52:01;9.00;73.00
20091;DHT22;10205;49.678;6.560;2023-01-16T10:54:31;8.90;72.80
20091;DHT22;10205;49.678;6.560;2023-01-16T10:56:59;8.90;72.90
20091;DHT22;10205;49.678;6.560;2023-01-16T10:59:30;9.00;73.00
20091;DHT22;10205;49.678;6.560;2023-01-16T11:02:08;9.00;73.00
20091;DHT22;10205;49.678;6.560;2023-01-16T11:04:46;9.00;73.00
20091;DHT22;10205;49.678;6.560;2023-01-16T11:07:16;9.00;73.10
20091;DHT22;10205;49.678;6.560;2023-01-16T11:09:45;9.00;73.10
20091;DHT22;10205;49.678;6.560;2023-01-16T11:12:23;9.00;73.10
20091;DHT22;10205;49.678;6.560;2023-01-16T11:15:16;9.00;73.30
20091;DHT22;10205;49.678;6.560;2023-01-16T11:18:20;9.00;73.30
20091;DHT22;10205;49.678;6.560;2023-01-16T11:20:59;9.10;73.40
20091;DHT22;10205;49.678;6.560;2023-01-16T11:23:36;9.10;73.40
20091;DHT22;10205;49.678;6.560;2023-01-16T11:26:06;9.00;73.30
20091;DHT22;10205;49.678;6.560;2023-01-16T11:28:35;9.00;73.30
20091;DHT22;10205;49.678;6.560;2023-01-16T11:31:13;9.00;73.40
20091;DHT22;10205;49.678;6.560;2023-01-16T11:33:50;9.00;73.50
20091;DHT22;10205;49.678;6.560;2023-01-16T11:36:24;9.10;73.60
20091;DHT22;10205;49.678;6.560;2023-01-16T11:38:52;9.10;73.60
20091;DHT22;10205;49.678;6.560;2023-01-16T11:41:23;9.10;73.60
20091;DHT22;10205;49.678;6.560;2023-01-16T11:44:12;9.10;73.60
20091;DHT22;10205;49.678;6.560;2023-01-16T11:47:00;9.10;73.60
20091;DHT22;10205;49.678;6.560;2023-01-16T11:49:33;9.10;73.40
20091;DHT22;10205;49.678;6.560;2023-01-16T11:52:04;9.10;73.40
20091;DHT22;10205;49.678;6.560;2023-01-16T11:54:33;9.20;73.50
20091;DHT22;10205;49.678;6.560;2023-01-16T11:57:24;9.10;73.40
20091;DHT22;10205;49.678;6.560;2023-01-16T12:00:26;9.10;73.50
20091;DHT22;10205;49.678;6.560;2023-01-16T12:03:35;9.20;73.90
20091;DHT22;10205;49.678;6.560;2023-01-16T12:06:18;9.20;73.60
20091;DHT22;10205;49.678;6.560;2023-01-16T12:09:23;9.20;73.50
20091;DHT22;10205;49.678;6.560;2023-01-16T12:12:12;9.20;73.50
20091;DHT22;10205;49.678;6.560;2023-01-16T12:15:04;9.20;73.40
20091;DHT22;10205;49.678;6.560;2023-01-16T12:17:50;9.20;73.30
20091;DHT22;10205;49.678;6.560;2023-01-16T12:20:33;9.20;73.30
20091;DHT22;10205;49.678;6.560;2023-01-16T12:23:32;9.20;73.30
20091;DHT22;10205;49.678;6.560;2023-01-16T12:26:19;9.20;73.30
20091;DHT22;10205;49.678;6.560;2023-01-16T12:28:59;9.20;73.30
20091;DHT22;10205;49.678;6.560;2023-01-16T12:31:54;9.30;73.40
20091;DHT22;10205;49.678;6.560;2023-01-16T12:38:07;9.30;73.30
20091;DHT22;10205;49.678;6.560;2023-01-16T12:44:17;9.30;73.00
20091;DHT22;10205;49.678;6.560;2023-01-16T12:47:03;9.30;73.10
20091;DHT22;10205;49.678;6.560;2023-01-16T12:49:59;9.40;73.10
20091;DHT22;10205;49.678;6.560;2023-01-16T12:52:56;9.40;73.00
20091;DHT22;10205;49.678;6.560;2023-01-16T12:55:41;9.30;72.80
20091;DHT22;10205;49.678;6.560;2023-01-16T12:58:14;9.30;73.00
20091;DHT22;10205;49.678;6.560;2023-01-16T13:00:48;9.40;73.00
20091;DHT22;10205;49.678;6.560;2023-01-16T13:03:26;9.30;73.10
20091;DHT22;10205;49.678;6.560;2023-01-16T13:06:01;9.30;73.00
20091;DHT22;10205;49.678;6.560;2023-01-16T13:08:33;9.30;73.10
20091;DHT22;10205;49.678;6.560;2023-01-16T13:11:08;9.40;73.10
20091;DHT22;10205;49.678;6.560;2023-01-16T13:13:59;9.40;73.20
20091;DHT22;10205;49.678;6.560;2023-01-16T13:16:34;9.40;73.10
20091;DHT22;10205;49.678;6.560;2023-01-16T13:19:11;9.40;73.00
20091;DHT22;10205;49.678;6.560;2023-01-16T13:21:52;9.40;72.90
20091;DHT22;10205;49.678;6.560;2023-01-16T13:24:29;9.40;73.00
20091;DHT22;10205;49.678;6.560;2023-01-16T13:27:02;9.40;72.90
20091;DHT22;10205;49.678;6.560;2023-01-16T13:29:39;9.40;72.90
20091;DHT22;10205;49.678;6.560;2023-01-16T13:32:22;9.40;73.00
20091;DHT22;10205;49.678;6.560;2023-01-16T13:34:57;9.40;73.00
20091;DHT22;10205;49.678;6.560;2023-01-16T13:37:52;9.40;73.00
20091;DHT22;10205;49.678;6.560;2023-01-16T13:40:45;9.40;73.10
20091;DHT22;10205;49.678;6.560;2023-01-16T13:43:26;9.40;73.00
20091;DHT22;10205;49.678;6.560;2023-01-16T13:46:16;9.30;73.00
20091;DHT22;10205;49.678;6.560;2023-01-16T13:48:52;9.30;73.10
20091;DHT22;10205;49.678;6.560;2023-01-16T13:51:22;9.30;73.00
20091;DHT22;10205;49.678;6.560;2023-01-16T13:53:52;9.30;73.00
20091;DHT22;10205;49.678;6.560;2023-01-16T13:56:25;9.30;73.00
20091;DHT22;10205;49.678;6.560;2023-01-16T13:58:58;9.20;73.00
20091;DHT22;10205;49.678;6.560;2023-01-16T14:01:35;9.20;73.20
20091;DHT22;10205;49.678;6.560;2023-01-16T14:04:31;9.20;73.40
20091;DHT22;10205;49.678;6.560;2023-01-16T14:07:01;9.20;73.20
20091;DHT22;10205;49.678;6.560;2023-01-16T14:10:16;9.20;73.10
20091;DHT22;10205;49.678;6.560;2023-01-16T14:13:01;9.20;73.20
20091;DHT22;10205;49.678;6.560;2023-01-16T14:15:49;9.10;73.30
20091;DHT22;10205;49.678;6.560;2023-01-16T14:18:41;9.10;73.20
20091;DHT22;10205;49.678;6.560;2023-01-16T14:21:18;9.10;73.20
20091;DHT22;10205;49.678;6.560;2023-01-16T14:23:53;9.10;73.00
20091;DHT22;10205;49.678;6.560;2023-01-16T14:26:33;9.00;73.10
20091;DHT22;10205;49.678;6.560;2023-01-16T14:29:17;9.00;73.00
20091;DHT22;10205;49.678;6.560;2023-01-16T14:31:59;9.00;73.20
20091;DHT22;10205;49.678;6.560;2023-01-16T14:34:33;9.00;73.40
20091;DHT22;10205;49.678;6.560;2023-01-16T14:37:15;9.00;73.40
20091;DHT22;10205;49.678;6.560;2023-01-16T14:39:48;9.00;74.30
20091;DHT22;10205;49.678;6.560;2023-01-16T14:42:19;8.90;73.40
20091;DHT22;10205;49.678;6.560;2023-01-16T14:45:28;8.90;73.50
20091;DHT22;10205;49.678;6.560;2023-01-16T14:48:33;9.00;73.60
20091;DHT22;10205;49.678;6.560;2023-01-16T14:51:29;8.90;73.90
20091;DHT22;10205;49.678;6.560;2023-01-16T14:54:20;8.90;73.10
20091;DHT22;10205;49.678;6.560;2023-01-16T14:57:10;8.90;73.20
20091;DHT22;10205;49.678;6.560;2023-01-16T14:59:44;8.90;73.30
20091;DHT22;10205;49.678;6.560;2023-01-16T15:02:23;8.90;73.40
20091;DHT22;10205;49.678;6.560;2023-01-16T15:05:05;8.90;73.40
20091;DHT22;10205;49.678;6.560;2023-01-16T15:07:41;8.90;73.20
20091;DHT22;10205;49.678;6.560;2023-01-16T15:10:17;8.80;73.30
20091;DHT22;10205;49.678;6.560;2023-01-16T15:12:47;8.80;73.40
20091;DHT22;10205;49.678;6.560;2023-01-16T15:15:22;8.90;74.20
20091;DHT22;10205;49.678;6.560;2023-01-16T15:17:53;8.80;73.40
20091;DHT22;10205;49.678;6.560;2023-01-16T15:20:42;8.80;73.40
20091;DHT22;10205;49.678;6.560;2023-01-16T15:23:30;8.80;73.50
20091;DHT22;10205;49.678;6.560;2023-01-16T15:29:13;8.80;73.60
20091;DHT22;10205;49.678;6.560;2023-01-16T15:32:02;8.80;73.50
20091;DHT22;10205;49.678;6.560;2023-01-16T15:34:41;8.80;73.30
20091;DHT22;10205;49.678;6.560;2023-01-16T15:37:19;8.90;73.30
20091;DHT22;10205;49.678;6.560;2023-01-16T15:39:48;8.80;73.00
20091;DHT22;10205;49.678;6.560;2023-01-16T15:42:21;8.80;72.90
20091;DHT22;10205;49.678;6.560;2023-01-16T15:45:19;8.80;72.80
20091;DHT22;10205;49.678;6.560;2023-01-16T15:48:32;8.80;72.90
20091;DHT22;10205;49.678;6.560;2023-01-16T15:51:10;8.80;73.00
20091;DHT22;10205;49.678;6.560;2023-01-16T15:53:42;8.80;73.00
20091;DHT22;10205;49.678;6.560;2023-01-16T15:56:18;8.80;73.10
20091;DHT22;10205;49.678;6.560;2023-01-16T15:58:49;8.70;73.10
20091;DHT22;10205;49.678;6.560;2023-01-16T16:01:25;8.70;73.10
20091;DHT22;10205;49.678;6.560;2023-01-16T16:03:54;8.70;73.20
20091;DHT22;10205;49.678;6.560;2023-01-16T16:06:23;8.70;73.30
20091;DHT22;10205;49.678;6.560;2023-01-16T16:08:53;8.70;73.30
20091;DHT22;10205;49.678;6.560;2023-01-16T16:11:25;8.70;73.40
20091;DHT22;10205;49.678;6.560;2023-01-16T16:14:18;8.70;73.50
20091;DHT22;10205;49.678;6.560;2023-01-16T16:17:20;8.70;73.50
20091;DHT22;10205;49.678;6.560;2023-01-16T16:20:34;8.70;73.60
20091;DHT22;10205;49.678;6.560;2023-01-16T16:23:09;8.70;73.50
20091;DHT22;10205;49.678;6.560;2023-01-16T16:25:48;8.70;73.50
20091;DHT22;10205;49.678;6.560;2023-01-16T16:28:20;8.70;73.40
20091;DHT22;10205;49.678;6.560;2023-01-16T16:30:56;8.70;73.40
20091;DHT22;10205;49.678;6.560;2023-01-16T16:33:26;8.60;73.40
20091;DHT22;10205;49.678;6.560;2023-01-16T16:35:56;8.70;73.60
20091;DHT22;10205;49.678;6.560;2023-01-16T16:38:26;8.70;73.70
20091;DHT22;10205;49.678;6.560;2023-01-16T16:44:43;8.60;74.40
20091;DHT22;10205;49.678;6.560;2023-01-16T16:47:32;8.70;74.60
20091;DHT22;10205;49.678;6.560;2023-01-16T16:50:01;8.70;74.90
20091;DHT22;10205;49.678;6.560;2023-01-16T16:52:49;8.70;74.80
20091;DHT22;10205;49.678;6.560;2023-01-16T16:55:28;8.80;74.90